Ester, AK (99725)

4:51 PM AKDT on May 22, 2017 (GMT -0800)
Forrest Ridge | | Change Station

Elev 822 ft 64.82 °N, 147.97 °W | Updated 13 seconds ago

Rain
Rain
51.5 °F
Feels Like 51.5 °F
N
1.0
Wind Variable Wind from NE

Today
High -- | Low -- °F
--% Chance of Precip.
Yesterday
High -- | Low -- °F
Precip. -- in
Pressure 29.68 in
Visibility 10.0 miles
Clouds Few 700 ft
Scattered Clouds 1700 ft
Mostly Cloudy 3800 ft
Overcast 13000 ft
Dew Point 48 °F
Humidity 88%
Rainfall 0.25 in
Snow Depth Not available.
4:03 AM 11:36 PM
Waning Crescent, 11% visible
METAR PAFA 222353Z VRB04KT 10SM -RA FEW007 SCT017 BKN038 OVC130 11/09 A2966 RMK AO2 SLP049 CIG LWR NW-N P0002 60013 T01110094 10111 20083 51016
Pressure 29.68 in
Visibility 10.0 miles
Clouds Few 700 ft
Scattered Clouds 1700 ft
Mostly Cloudy 3800 ft
Overcast 13000 ft
Dew Point 48 °F
Humidity 88%
Rainfall 0.25 in
Snow Depth Not available.
4:03 AM 11:36 PM
Waning Crescent, 11% visible
METAR PAFA 222353Z VRB04KT 10SM -RA FEW007 SCT017 BKN038 OVC130 11/09 A2966 RMK AO2 SLP049 CIG LWR NW-N P0002 60013 T01110094 10111 20083 51016

Get Severe Weather Alerts

Thanks for signing up!

Be on the lookout for a verification email in your inbox.

You'll start receiving the daily forecast at 6 AM.

×

10-Day Weather Forecast

Almanac

Astronomy

May. 22, 2017 Rise Set
Actual Time
Civil Twilight
Nautical Twilight
Astronomical Twilight
Moon
Length of Visible Light
Length of Day
Tomorrow will be .
, % of the Moon is Illuminated

Today's Extremes

State Highs State Lows

Community

WunderPhotos

Category 6

Welcome to Category 6. This is the collective home for Weather Underground's featured writeups by Dr. Jeff Masters (right), Bob Henson (left), Chris Burt, and other regular contributors.

Nearby

Air Quality

  Air Quality AQ Index Pollutant
Not available.

Snow Depth

Station Depth Elevation

Earthquake Activity

City Distance Mag. Time & Date
Minimum magnitude displayed is 2.5.

Coastal Water Temperatures

Place Temperature

Stations

Nearby Weather Stations

Station Location Temp. Windchill Dew Point Humidity Wind Precip. Elev Updated Type
                   

Watches & Warnings

There are currently no watches in effect.